createdAt,value
2022-11-05T00:00:17.127Z,96423.84
2022-11-05T00:03:03.020Z,96427.56
2022-11-05T00:05:49.891Z,96432.16
2022-11-05T00:08:48.414Z,96442.34
2022-11-05T00:11:18.305Z,96447.84
2022-11-05T00:14:04.596Z,96449.44
2022-11-05T00:16:44.777Z,96456.56
2022-11-05T00:19:13.580Z,96458.25
2022-11-05T00:22:04.651Z,96461.50
2022-11-05T00:24:51.715Z,96456.34
2022-11-05T00:27:19.968Z,96460.22
2022-11-05T00:29:47.972Z,96470.97
2022-11-05T00:32:16.138Z,96459.66
2022-11-05T00:34:45.364Z,96471.78
2022-11-05T00:37:16.658Z,96464.69
2022-11-05T00:39:46.152Z,96473.13
2022-11-05T00:42:31.911Z,96471.59
2022-11-05T00:45:02.989Z,96474.22
2022-11-05T00:47:50.750Z,96478.97
2022-11-05T00:50:19.673Z,96483.22
2022-11-05T00:52:57.645Z,96478.78
2022-11-05T00:55:33.468Z,96480.94
2022-11-05T00:58:02.934Z,96479.34
2022-11-05T01:00:32.680Z,96481.25
2022-11-05T01:03:02.419Z,96487.91
2022-11-05T01:05:32.306Z,96483.97
2022-11-05T01:08:00.725Z,96481.69
2022-11-05T01:10:30.200Z,96484.94
2022-11-05T01:12:59.115Z,96486.41
2022-11-05T01:15:27.404Z,96492.72
2022-11-05T01:17:55.551Z,96495.72
2022-11-05T01:20:23.858Z,96491.66
2022-11-05T01:22:51.988Z,96494.59
2022-11-05T01:25:20.299Z,96495.97
2022-11-05T01:27:49.731Z,96498.84
2022-11-05T01:30:18.047Z,96500.56
2022-11-05T01:32:46.233Z,96507.78
2022-11-05T01:35:16.765Z,96509.91
2022-11-05T01:37:45.116Z,96519.25
2022-11-05T01:40:15.851Z,96515.72
2022-11-05T01:42:44.534Z,96518.53
2022-11-05T01:45:17.208Z,96526.31
2022-11-05T01:48:02.629Z,96530.06
2022-11-05T01:50:49.341Z,96526.81
2022-11-05T01:53:25.241Z,96534.34
2022-11-05T01:55:58.910Z,96535.06
2022-11-05T01:58:32.675Z,96535.47
2022-11-05T02:01:02.627Z,96542.16
2022-11-05T02:03:31.161Z,96536.31
2022-11-05T02:06:02.315Z,96536.25
2022-11-05T02:08:46.303Z,96530.88
2022-11-05T02:14:53.731Z,96542.91
2022-11-05T02:17:34.598Z,96536.59
2022-11-05T02:20:18.895Z,96540.03
2022-11-05T02:23:12.883Z,96539.69
2022-11-05T02:26:32.852Z,96542.09
2022-11-05T02:29:41.925Z,96544.94
2022-11-05T02:32:21.194Z,96548.13
2022-11-05T02:34:56.734Z,96552.03
2022-11-05T02:37:38.374Z,96549.59
2022-11-05T02:40:14.674Z,96554.81
2022-11-05T02:42:47.184Z,96558.53
2022-11-05T02:45:26.961Z,96554.81
2022-11-05T02:48:01.347Z,96554.50
2022-11-05T02:50:35.108Z,96551.22
2022-11-05T02:53:10.232Z,96558.53
2022-11-05T02:55:43.092Z,96562.09
2022-11-05T02:58:11.226Z,96569.72
2022-11-05T03:00:50.115Z,96569.66
2022-11-05T03:03:29.780Z,96573.56
2022-11-05T03:06:18.723Z,96571.94
2022-11-05T03:09:24.255Z,96575.00
2022-11-05T03:12:01.191Z,96581.72
2022-11-05T03:14:41.467Z,96583.25
2022-11-05T03:17:20.059Z,96593.88
2022-11-05T03:19:54.851Z,96590.84
2022-11-05T03:22:25.513Z,96596.53
2022-11-05T03:24:59.315Z,96597.59
2022-11-05T03:27:31.395Z,96600.00
2022-11-05T03:30:03.487Z,96605.69
2022-11-05T03:32:35.051Z,96603.28
2022-11-05T03:35:09.647Z,96601.78
2022-11-05T03:37:41.023Z,96604.81
2022-11-05T03:40:13.005Z,96605.13
2022-11-05T03:42:46.336Z,96603.03
2022-11-05T03:45:20.106Z,96605.47
2022-11-05T03:47:51.537Z,96614.81
2022-11-05T03:50:24.741Z,96625.72
2022-11-05T03:52:55.589Z,96627.88
2022-11-05T03:55:30.371Z,96634.38
2022-11-05T03:58:00.459Z,96635.91
2022-11-05T04:00:28.539Z,96648.13
2022-11-05T04:02:56.981Z,96645.31
2022-11-05T04:05:26.531Z,96653.56
2022-11-05T04:08:14.501Z,96651.41
2022-11-05T04:11:02.489Z,96660.44
2022-11-05T04:13:30.652Z,96662.28
2022-11-05T04:16:19.565Z,96671.47
2022-11-05T04:18:48.305Z,96673.78
2022-11-05T04:21:35.290Z,96679.22
2022-11-05T04:24:09.518Z,96684.06
2022-11-05T04:26:38.979Z,96681.25
2022-11-05T04:29:24.966Z,96686.47
2022-11-05T04:31:53.838Z,96685.19
2022-11-05T04:34:23.022Z,96679.66
2022-11-05T04:36:54.175Z,96677.06
2022-11-05T04:39:22.633Z,96677.44
2022-11-05T04:41:50.579Z,96688.06
2022-11-05T04:44:18.705Z,96688.44
2022-11-05T04:46:46.691Z,96691.16
2022-11-05T04:49:14.876Z,96696.69
2022-11-05T04:51:43.185Z,96698.88
2022-11-05T04:54:12.556Z,96697.13
2022-11-05T04:56:40.508Z,96702.78
2022-11-05T04:59:08.530Z,96713.03
2022-11-05T05:01:36.616Z,96716.56
2022-11-05T05:04:04.949Z,96716.72
2022-11-05T05:06:32.920Z,96709.41
2022-11-05T05:09:01.248Z,96725.00
2022-11-05T05:11:30.788Z,96720.03
2022-11-05T05:13:58.802Z,96739.56
2022-11-05T05:16:28.300Z,96742.69
2022-11-05T05:18:56.430Z,96747.84
2022-11-05T05:21:39.249Z,96747.47
2022-11-05T05:24:09.762Z,96741.81
2022-11-05T05:26:41.073Z,96735.28
2022-11-05T05:29:10.414Z,96748.75
2022-11-05T05:31:39.108Z,96754.53
2022-11-05T05:34:08.737Z,96757.88
2022-11-05T05:36:36.653Z,96763.81
2022-11-05T05:39:06.187Z,96766.28
2022-11-05T05:41:35.008Z,96763.91
2022-11-05T05:44:05.861Z,96768.69
2022-11-05T05:46:33.971Z,96769.22
2022-11-05T05:49:03.035Z,96764.69
2022-11-05T05:51:32.485Z,96762.53
2022-11-05T05:54:00.507Z,96767.81
2022-11-05T05:56:28.693Z,96771.28
2022-11-05T05:58:57.061Z,96774.66
2022-11-05T06:01:26.610Z,96776.28
2022-11-05T06:03:54.796Z,96781.84
2022-11-05T06:06:22.792Z,96778.81
2022-11-05T06:08:50.847Z,96778.75
2022-11-05T06:11:18.942Z,96783.97
2022-11-05T06:13:46.975Z,96783.13
2022-11-05T06:16:15.124Z,96789.72
2022-11-05T06:18:44.567Z,96795.47
2022-11-05T06:21:14.684Z,96799.28
2022-11-05T06:23:45.118Z,96795.88
2022-11-05T06:26:15.602Z,96799.53
2022-11-05T06:28:44.205Z,96797.63
2022-11-05T06:31:14.326Z,96804.28
2022-11-05T06:33:42.526Z,96808.81
2022-11-05T06:36:15.716Z,96812.34
2022-11-05T06:38:43.872Z,96808.94
2022-11-05T06:41:11.833Z,96819.44
2022-11-05T06:43:40.109Z,96817.59
2022-11-05T06:46:08.750Z,96836.00
2022-11-05T06:48:36.718Z,96840.91
2022-11-05T06:51:05.614Z,96846.34
2022-11-05T06:53:36.175Z,96866.78
2022-11-05T06:56:05.537Z,96879.47
2022-11-05T06:58:34.159Z,96878.06
2022-11-05T07:01:03.332Z,96873.91
2022-11-05T07:03:31.531Z,96871.84
2022-11-05T07:06:00.915Z,96875.63
2022-11-05T07:08:32.024Z,96884.50
2022-11-05T07:11:01.899Z,96886.78
2022-11-05T07:13:29.875Z,96884.56
2022-11-05T07:15:57.986Z,96886.41
2022-11-05T07:18:26.191Z,96891.72
2022-11-05T07:20:54.262Z,96899.09
2022-11-05T07:23:22.407Z,96899.31
2022-11-05T07:25:50.401Z,96892.81
2022-11-05T07:28:20.416Z,96901.66
2022-11-05T07:30:49.293Z,96904.94
2022-11-05T07:33:17.304Z,96908.16
2022-11-05T07:35:45.412Z,96919.69
2022-11-05T07:38:13.465Z,96921.03
2022-11-05T07:40:41.614Z,96926.78
2022-11-05T07:43:10.001Z,96926.44
2022-11-05T07:45:39.979Z,96939.19
2022-11-05T07:48:08.480Z,96932.38
2022-11-05T07:50:38.183Z,96941.75
2022-11-05T07:53:08.024Z,96950.78
2022-11-05T07:55:36.633Z,96951.38
2022-11-05T07:58:05.014Z,96954.88
2022-11-05T08:00:34.293Z,96958.03
2022-11-05T08:03:08.498Z,96971.94
2022-11-05T08:05:39.703Z,96968.31
2022-11-05T08:08:09.491Z,96978.75
2022-11-05T08:10:38.857Z,96981.75
2022-11-05T08:13:08.666Z,96980.97
2022-11-05T08:15:37.197Z,96977.25
2022-11-05T08:18:08.499Z,96982.06
2022-11-05T08:20:38.488Z,96986.66
2022-11-05T08:23:06.772Z,96988.00
2022-11-05T08:25:34.852Z,96989.78
2022-11-05T08:28:05.211Z,96993.59
2022-11-05T08:30:33.978Z,96998.28
2022-11-05T08:33:04.775Z,97004.09
2022-11-05T08:35:35.576Z,97014.44
2022-11-05T08:38:06.387Z,97009.06
2022-11-05T08:40:37.067Z,97006.44
2022-11-05T08:43:07.510Z,97007.91
2022-11-05T08:45:38.514Z,97019.81
2022-11-05T08:48:08.841Z,97019.53
2022-11-05T08:50:40.541Z,97015.31
2022-11-05T08:53:10.605Z,97018.84
2022-11-05T08:55:39.185Z,97022.19
2022-11-05T08:58:09.103Z,97029.50
2022-11-05T09:00:37.934Z,97029.44
2022-11-05T09:03:08.335Z,97024.00
2022-11-05T09:05:39.286Z,97024.59
2022-11-05T09:08:10.388Z,97025.72
2022-11-05T09:10:39.061Z,97030.81
2022-11-05T09:13:07.136Z,97033.81
2022-11-05T09:15:36.546Z,97045.03
2022-11-05T09:18:05.992Z,97041.94
2022-11-05T09:20:36.704Z,97037.16
2022-11-05T09:23:04.787Z,97030.69
2022-11-05T09:25:34.730Z,97028.81
2022-11-05T09:28:15.909Z,97035.75
2022-11-05T09:30:46.885Z,97040.84
2022-11-05T09:33:15.298Z,97047.59
2022-11-05T09:35:43.728Z,97051.97
2022-11-05T09:38:11.691Z,97061.63
2022-11-05T09:40:48.259Z,97059.75
2022-11-05T09:43:20.311Z,97055.31
2022-11-05T09:45:52.892Z,97057.63
2022-11-05T09:48:25.974Z,97053.06
2022-11-05T09:50:55.146Z,97061.31
2022-11-05T09:53:24.952Z,97071.44
2022-11-05T09:55:57.348Z,97065.69
2022-11-05T09:58:37.242Z,97062.84
2022-11-05T10:01:07.675Z,97063.22
2022-11-05T10:03:43.853Z,97067.09
2022-11-05T10:06:18.499Z,97066.25
2022-11-05T10:08:50.384Z,97072.41
2022-11-05T10:11:26.056Z,97059.31
2022-11-05T10:14:00.255Z,97070.16
2022-11-05T10:16:32.084Z,97065.25
2022-11-05T10:19:07.295Z,97067.66
2022-11-05T10:22:04.411Z,97070.16
2022-11-05T10:24:24.752Z,97073.09
2022-11-05T10:26:55.697Z,97078.13
2022-11-05T10:29:29.276Z,97089.97
2022-11-05T10:31:58.981Z,97088.41
2022-11-05T10:34:31.375Z,97082.59
2022-11-05T10:36:59.632Z,97083.84
2022-11-05T10:39:28.719Z,97095.31
2022-11-05T10:42:10.011Z,97093.72
2022-11-05T10:44:45.196Z,97089.13
2022-11-05T10:47:36.307Z,97087.59
2022-11-05T10:50:10.726Z,97093.22
2022-11-05T10:52:41.253Z,97104.81
2022-11-05T10:55:18.129Z,97099.47
2022-11-05T10:57:49.434Z,97107.38
2022-11-05T11:00:31.551Z,97107.72
2022-11-05T11:03:01.683Z,97107.50
2022-11-05T11:05:32.898Z,97097.22
2022-11-05T11:08:22.306Z,97084.03
2022-11-05T11:10:53.019Z,97094.44
2022-11-05T11:13:24.287Z,97098.63
2022-11-05T11:15:52.805Z,97108.66
2022-11-05T11:18:35.878Z,97111.38
2022-11-05T11:21:13.286Z,97110.31
2022-11-05T11:23:42.943Z,97124.63
2022-11-05T11:26:12.832Z,97120.25
2022-11-05T11:28:47.149Z,97119.97
2022-11-05T11:31:18.350Z,97134.81
2022-11-05T11:33:49.225Z,97130.19
2022-11-05T11:36:18.980Z,97127.38
2022-11-05T11:38:47.484Z,97128.28
2022-11-05T11:41:26.421Z,97128.81
2022-11-05T11:43:58.495Z,97126.38
2022-11-05T11:46:27.276Z,97126.81
2022-11-05T11:48:55.295Z,97129.44
2022-11-05T11:51:34.246Z,97124.91
2022-11-05T11:54:03.056Z,97127.59
2022-11-05T11:56:32.565Z,97124.50
2022-11-05T11:59:12.921Z,97125.88
2022-11-05T12:02:08.435Z,97131.56
2022-11-05T12:04:52.220Z,97124.56
2022-11-05T12:07:31.670Z,97128.09
2022-11-05T12:10:12.758Z,97120.19
2022-11-05T12:12:48.094Z,97117.28
2022-11-05T12:15:31.227Z,97120.59
2022-11-05T12:18:03.707Z,97117.53
2022-11-05T12:20:48.110Z,97125.22
2022-11-05T12:23:48.847Z,97126.75
2022-11-05T12:26:28.542Z,97133.13
2022-11-05T12:29:18.704Z,97124.59
2022-11-05T12:32:00.044Z,97131.13
2022-11-05T12:34:43.806Z,97122.13
2022-11-05T12:37:24.037Z,97130.59
2022-11-05T12:40:15.835Z,97133.81
2022-11-05T12:42:57.799Z,97134.16
2022-11-05T12:45:40.245Z,97134.97
2022-11-05T12:48:30.360Z,97148.56
2022-11-05T12:51:12.630Z,97140.75
2022-11-05T12:53:54.038Z,97155.28
2022-11-05T12:56:28.511Z,97165.88
2022-11-05T12:59:02.066Z,97153.13
2022-11-05T13:01:37.826Z,97157.00
2022-11-05T13:04:15.699Z,97151.97
2022-11-05T13:06:49.685Z,97154.34
2022-11-05T13:09:21.297Z,97161.34
2022-11-05T13:11:54.696Z,97151.28
2022-11-05T13:14:27.888Z,97159.81
2022-11-05T13:17:01.231Z,97155.72
2022-11-05T13:19:35.981Z,97158.22
2022-11-05T13:22:09.771Z,97153.41
2022-11-05T13:24:41.465Z,97159.34
2022-11-05T13:27:31.861Z,97167.97
2022-11-05T13:30:05.498Z,97163.91
2022-11-05T13:32:37.365Z,97164.41
2022-11-05T13:35:15.211Z,97168.00
2022-11-05T13:38:03.916Z,97171.53
2022-11-05T13:40:45.914Z,97182.78
2022-11-05T13:43:32.807Z,97185.09
2022-11-05T13:46:16.731Z,97192.09
2022-11-05T13:49:17.192Z,97187.59
2022-11-05T13:52:03.808Z,97193.84
2022-11-05T13:55:19.061Z,97187.94
2022-11-05T13:58:09.397Z,97189.22
2022-11-05T14:00:42.408Z,97187.19
2022-11-05T14:03:19.352Z,97194.38
2022-11-05T14:05:55.538Z,97198.28
2022-11-05T14:08:29.057Z,97205.56
2022-11-05T14:11:04.287Z,97203.81
2022-11-05T14:13:36.227Z,97209.91
2022-11-05T14:16:07.984Z,97211.69
2022-11-05T14:18:40.366Z,97214.75
2022-11-05T14:21:31.714Z,97214.88
2022-11-05T14:24:20.232Z,97210.19
2022-11-05T14:27:32.952Z,97214.88
2022-11-05T14:30:01.885Z,97219.25
2022-11-05T14:32:50.012Z,97225.47
2022-11-05T14:35:37.777Z,97225.19
2022-11-05T14:38:07.480Z,97229.34
2022-11-05T14:40:39.666Z,97224.84
2022-11-05T14:43:22.505Z,97222.47
2022-11-05T14:45:56.268Z,97226.78
2022-11-05T14:48:32.845Z,97224.44
2022-11-05T14:51:00.992Z,97224.97
2022-11-05T14:53:34.757Z,97223.53
2022-11-05T14:56:08.083Z,97237.03
2022-11-05T14:58:38.175Z,97241.03
2022-11-05T15:01:08.297Z,97251.34
2022-11-05T15:04:06.703Z,97242.25
2022-11-05T15:06:36.765Z,97242.25
2022-11-05T15:09:24.027Z,97243.72
2022-11-05T15:12:09.121Z,97246.72
2022-11-05T15:14:42.409Z,97247.56
2022-11-05T15:17:19.550Z,97252.66
2022-11-05T15:19:48.657Z,97246.31
2022-11-05T15:22:30.334Z,97245.53
2022-11-05T15:24:58.687Z,97248.25
2022-11-05T15:27:58.151Z,97262.94
2022-11-05T15:30:27.260Z,97261.22
2022-11-05T15:32:55.382Z,97254.69
2022-11-05T15:35:27.017Z,97243.34
2022-11-05T15:38:01.800Z,97250.75
2022-11-05T15:40:33.479Z,97247.88
2022-11-05T15:43:19.486Z,97254.06
2022-11-05T15:46:05.602Z,97254.91
2022-11-05T15:48:34.577Z,97262.06
2022-11-05T15:51:03.006Z,97256.47
2022-11-05T15:53:56.529Z,97261.03
2022-11-05T15:56:26.045Z,97255.09
2022-11-05T15:58:59.832Z,97265.72
2022-11-05T16:01:33.370Z,97260.44
2022-11-05T16:04:09.767Z,97268.97
2022-11-05T16:06:40.869Z,97272.81
2022-11-05T16:09:09.171Z,97277.50
2022-11-05T16:11:37.738Z,97271.91
2022-11-05T16:14:18.533Z,97279.69
2022-11-05T16:16:47.454Z,97280.75
2022-11-05T16:19:40.850Z,97289.81
2022-11-05T16:22:09.777Z,97290.91
2022-11-05T16:24:37.892Z,97292.63
2022-11-05T16:27:07.099Z,97285.94
2022-11-05T16:29:38.640Z,97297.81
2022-11-05T16:32:17.464Z,97298.91
2022-11-05T16:34:49.371Z,97296.66
2022-11-05T16:37:21.544Z,97298.53
2022-11-05T16:39:49.659Z,97302.91
2022-11-05T16:42:37.970Z,97306.44
2022-11-05T16:45:13.658Z,97320.47
2022-11-05T16:47:42.728Z,97309.47
2022-11-05T16:50:23.958Z,97312.63
2022-11-05T16:52:52.784Z,97318.38
2022-11-05T16:55:21.474Z,97318.50
2022-11-05T16:57:52.349Z,97319.69
2022-11-05T17:00:23.225Z,97319.16
2022-11-05T17:02:52.035Z,97323.94
2022-11-05T17:05:23.251Z,97326.81
2022-11-05T17:07:51.817Z,97332.84
2022-11-05T17:10:20.445Z,97336.31
2022-11-05T17:12:49.075Z,97331.31
2022-11-05T17:15:22.317Z,97331.25
2022-11-05T17:17:50.868Z,97331.84
2022-11-05T17:20:39.431Z,97342.53
2022-11-05T17:23:10.204Z,97346.44
2022-11-05T17:25:39.000Z,97345.78
2022-11-05T17:28:10.988Z,97340.72
2022-11-05T17:30:41.945Z,97345.19
2022-11-05T17:33:11.304Z,97348.72
2022-11-05T17:35:40.430Z,97353.75
2022-11-05T17:38:08.655Z,97354.41
2022-11-05T17:40:37.759Z,97364.28
2022-11-05T17:43:07.318Z,97352.69
2022-11-05T17:45:36.084Z,97363.22
2022-11-05T17:48:05.877Z,97368.53
2022-11-05T17:50:33.821Z,97365.00
2022-11-05T17:53:02.248Z,97370.91
2022-11-05T17:55:30.223Z,97374.47
2022-11-05T17:57:58.404Z,97385.63
2022-11-05T18:00:26.414Z,97377.06
2022-11-05T18:02:55.058Z,97384.06
2022-11-05T18:05:27.855Z,97383.22
2022-11-05T18:07:56.517Z,97386.81
2022-11-05T18:10:25.470Z,97385.28
2022-11-05T18:12:53.547Z,97390.94
2022-11-05T18:15:21.546Z,97382.53
2022-11-05T18:17:49.850Z,97390.72
2022-11-05T18:20:19.661Z,97399.75
2022-11-05T18:22:51.847Z,97391.03
2022-11-05T18:25:19.967Z,97403.97
2022-11-05T18:27:48.095Z,97400.41
2022-11-05T18:30:16.131Z,97398.41
2022-11-05T18:32:44.806Z,97393.59
2022-11-05T18:35:13.243Z,97399.97
2022-11-05T18:37:42.034Z,97392.13
2022-11-05T18:40:12.544Z,97401.63
2022-11-05T18:42:40.834Z,97394.00
2022-11-05T18:45:10.497Z,97394.97
2022-11-05T18:47:38.637Z,97399.44
2022-11-05T18:50:09.315Z,97407.09
2022-11-05T18:52:37.544Z,97400.94
2022-11-05T18:55:06.312Z,97408.59
2022-11-05T18:57:36.029Z,97406.78
2022-11-05T19:00:05.226Z,97410.22
2022-11-05T19:02:33.721Z,97415.31
2022-11-05T19:07:50.010Z,97418.25
2022-11-05T19:10:19.211Z,97420.06
2022-11-05T19:12:48.592Z,97424.69
2022-11-05T19:15:16.646Z,97430.84
2022-11-05T19:17:45.431Z,97436.00
2022-11-05T19:20:13.557Z,97418.66
2022-11-05T19:22:41.574Z,97435.13
2022-11-05T19:25:09.610Z,97434.00
2022-11-05T19:27:38.618Z,97432.28
2022-11-05T19:30:09.043Z,97440.19
2022-11-05T19:32:37.203Z,97439.34
2022-11-05T19:35:07.760Z,97427.97
2022-11-05T19:37:35.756Z,97439.13
2022-11-05T19:40:03.696Z,97442.81
2022-11-05T19:42:31.650Z,97441.19
2022-11-05T19:45:16.745Z,97440.13
2022-11-05T19:47:49.197Z,97437.41
2022-11-05T19:50:17.962Z,97435.81
2022-11-05T19:52:45.953Z,97437.25
2022-11-05T19:55:14.093Z,97444.13
2022-11-05T19:57:42.077Z,97441.72
2022-11-05T20:00:11.171Z,97450.38
2022-11-05T20:02:39.179Z,97447.00
2022-11-05T20:05:09.276Z,97445.38
2022-11-05T20:07:37.662Z,97454.63
2022-11-05T20:10:06.624Z,97448.94
2022-11-05T20:12:35.365Z,97448.44
2022-11-05T20:15:03.675Z,97455.16
2022-11-05T20:17:32.135Z,97444.84
2022-11-05T20:20:00.623Z,97447.56
2022-11-05T20:22:29.967Z,97453.81
2022-11-05T20:24:58.033Z,97456.47
2022-11-05T20:27:26.105Z,97459.97
2022-11-05T20:29:54.000Z,97456.28
2022-11-05T20:32:22.261Z,97457.75
2022-11-05T20:34:53.256Z,97461.19
2022-11-05T20:37:21.229Z,97457.69
2022-11-05T20:39:50.470Z,97460.25
2022-11-05T20:42:18.832Z,97455.84
2022-11-05T20:44:46.870Z,97450.72
2022-11-05T20:47:14.896Z,97449.91
2022-11-05T20:49:43.026Z,97455.84
2022-11-05T20:52:12.198Z,97454.00
2022-11-05T20:54:40.120Z,97457.31
2022-11-05T20:57:10.782Z,97464.56
2022-11-05T20:59:38.789Z,97463.88
2022-11-05T21:02:06.909Z,97467.75
2022-11-05T21:04:34.999Z,97474.72
2022-11-05T21:07:02.997Z,97485.22
2022-11-05T21:09:31.110Z,97480.19
2022-11-05T21:12:11.224Z,97483.63
2022-11-05T21:14:41.884Z,97482.66
2022-11-05T21:17:12.266Z,97485.75
2022-11-05T21:19:40.518Z,97482.25
2022-11-05T21:22:08.718Z,97486.78
2022-11-05T21:24:36.939Z,97488.41
2022-11-05T21:27:05.268Z,97479.13
2022-11-05T21:29:33.241Z,97484.91
2022-11-05T21:32:02.856Z,97472.06
2022-11-05T21:34:30.995Z,97474.38
2022-11-05T21:36:59.029Z,97475.25
2022-11-05T21:39:27.737Z,97480.44
2022-11-05T21:41:57.361Z,97467.59
2022-11-05T21:44:25.647Z,97463.38
2022-11-05T21:46:57.512Z,97462.38
2022-11-05T21:49:27.090Z,97454.56
2022-11-05T21:52:27.496Z,97450.97
2022-11-05T21:55:13.353Z,97452.63
2022-11-05T21:57:59.642Z,97451.44
2022-11-05T22:00:27.672Z,97447.81
2022-11-05T22:02:55.779Z,97456.47
2022-11-05T22:05:25.442Z,97454.72
2022-11-05T22:07:53.845Z,97458.84
2022-11-05T22:10:22.248Z,97450.13
2022-11-05T22:12:50.286Z,97458.56
2022-11-05T22:15:18.270Z,97446.50
2022-11-05T22:17:47.467Z,97451.47
2022-11-05T22:20:16.318Z,97458.47
2022-11-05T22:22:46.726Z,97464.81
2022-11-05T22:25:15.260Z,97473.66
2022-11-05T22:27:44.008Z,97472.19
2022-11-05T22:30:13.698Z,97469.63
2022-11-05T22:32:41.665Z,97472.47
2022-11-05T22:35:10.503Z,97469.00
2022-11-05T22:37:38.499Z,97469.03
2022-11-05T22:40:09.687Z,97476.91
2022-11-05T22:42:38.369Z,97479.66
2022-11-05T22:45:07.448Z,97476.97
2022-11-05T22:47:35.498Z,97474.38
2022-11-05T22:50:03.515Z,97475.22
2022-11-05T22:52:32.717Z,97469.13
2022-11-05T22:55:02.614Z,97480.31
2022-11-05T22:57:32.013Z,97472.63
2022-11-05T23:00:00.363Z,97473.56
2022-11-05T23:02:28.520Z,97465.75
2022-11-05T23:04:56.766Z,97466.66
2022-11-05T23:07:42.199Z,97470.91
2022-11-05T23:10:27.949Z,97471.81
2022-11-05T23:12:57.252Z,97478.41
2022-11-05T23:15:42.909Z,97473.38
2022-11-05T23:18:29.380Z,97469.84
2022-11-05T23:21:19.186Z,97480.38
2022-11-05T23:24:06.005Z,97469.97
2022-11-05T23:26:54.046Z,97471.75
2022-11-05T23:29:25.444Z,97470.06
2022-11-05T23:32:11.744Z,97478.81
2022-11-05T23:34:40.023Z,97478.88
2022-11-05T23:37:25.713Z,97477.09
2022-11-05T23:39:53.804Z,97466.69
2022-11-05T23:42:40.146Z,97466.75
2022-11-05T23:45:28.766Z,97468.41
2022-11-05T23:48:14.532Z,97472.03
2022-11-05T23:50:44.733Z,97477.06
2022-11-05T23:53:12.859Z,97467.56
2022-11-05T23:55:40.937Z,97473.59
2022-11-05T23:58:09.529Z,97463.28
